Time;durP1;ratioP1;P1;durP2;ratioP2;P2;SDS_P1;SDS_P2;PMS_P1;PMS_P2;Temp;Humidity;BMP_temperature;BMP_pressure;BME280_temperature;BME280_humidity;BME280_pressure;Samples;Min_cycle;Max_cycle;Signal;HPM_P1;HPM_P2
2022/11/09 00:01:03;;;;;;;6.43;5.83;;;18.00;71.30;;;;;;5027722;28;20467;-83
2022/11/09 00:03:32;;;;;;;6.17;5.40;;;18.00;70.30;;;;;;5026805;28;20448;-83
2022/11/09 00:06:01;;;;;;;6.60;6.00;;;18.00;72.40;;;;;;5030486;28;21188;-83
2022/11/09 00:08:29;;;;;;;6.33;5.70;;;18.10;73.00;;;;;;5021596;28;20467;-83
2022/11/09 00:11:03;;;;;;;7.20;6.50;;;18.20;72.10;;;;;;5025138;28;20546;-83
2022/11/09 00:13:31;;;;;;;6.63;6.03;;;18.40;70.30;;;;;;5025386;28;20947;-82
2022/11/09 00:16:00;;;;;;;7.37;6.67;;;18.40;70.20;;;;;;5023151;28;20811;-82
2022/11/09 00:18:29;;;;;;;6.30;5.70;;;18.50;71.60;;;;;;5023388;28;20533;-82
2022/11/09 00:20:58;;;;;;;6.50;5.97;;;18.60;71.30;;;;;;5021298;28;20824;-83
2022/11/09 00:23:26;;;;;;;8.57;7.87;;;18.70;70.10;;;;;;5019555;28;20452;-82
2022/11/09 00:25:54;;;;;;;7.10;6.50;;;18.80;69.90;;;;;;5020919;28;20471;-82
2022/11/09 00:28:23;;;;;;;5.97;5.40;;;18.80;70.50;;;;;;5020148;28;20456;-82
2022/11/09 00:30:51;;;;;;;6.60;6.07;;;18.80;69.80;;;;;;5021882;28;20959;-82
2022/11/09 00:33:19;;;;;;;6.80;6.20;;;18.80;68.50;;;;;;5027410;28;20454;-82
2022/11/09 00:35:47;;;;;;;6.67;6.03;;;18.80;68.60;;;;;;5029426;28;20480;-82
2022/11/09 00:38:17;;;;;;;6.93;6.23;;;18.70;68.70;;;;;;5025640;28;20452;-82
2022/11/09 00:40:45;;;;;;;6.23;5.40;;;18.60;68.10;;;;;;5027436;28;20444;-82
2022/11/09 00:43:13;;;;;;;5.50;5.00;;;18.60;70.50;;;;;;5021536;28;20458;-82
2022/11/09 00:45:41;;;;;;;10.23;6.27;;;18.70;68.90;;;;;;5026506;28;20495;-82
2022/11/09 00:48:10;;;;;;;8.37;7.20;;;18.70;67.10;;;;;;5034343;28;20507;-82
2022/11/09 00:50:38;;;;;;;9.70;6.90;;;18.50;66.50;;;;;;5025461;28;20451;-82
2022/11/09 00:53:06;;;;;;;7.03;6.40;;;18.40;67.30;;;;;;5022775;28;20540;-82
2022/11/09 00:55:35;;;;;;;6.90;6.30;;;18.20;67.80;;;;;;5026989;28;20470;-82
2022/11/09 00:58:04;;;;;;;7.03;6.30;;;18.10;69.20;;;;;;5006027;28;20464;-82
2022/11/09 01:00:32;;;;;;;8.43;6.97;;;18.10;69.60;;;;;;5028622;28;20459;-82
2022/11/09 01:03:00;;;;;;;6.83;6.17;;;18.10;69.60;;;;;;5008129;28;21159;-82
2022/11/09 01:05:28;;;;;;;7.43;6.73;;;18.10;69.80;;;;;;5030252;28;20506;-82
2022/11/09 01:07:56;;;;;;;8.40;7.17;;;18.20;70.20;;;;;;5023563;28;20452;-82
2022/11/09 01:10:24;;;;;;;7.23;5.87;;;18.20;68.30;;;;;;5022061;28;20457;-82
2022/11/09 01:12:55;;;;;;;6.43;5.70;;;18.10;68.60;;;;;;5013975;28;20460;-82
2022/11/09 01:15:23;;;;;;;6.57;5.97;;;18.00;70.10;;;;;;5029390;28;20445;-82
2022/11/09 01:17:52;;;;;;;6.23;5.63;;;18.00;69.30;;;;;;5023666;28;20480;-82
2022/11/09 01:20:20;;;;;;;9.13;6.30;;;18.10;69.30;;;;;;5021134;28;20919;-82
2022/11/09 01:22:48;;;;;;;8.57;5.87;;;18.00;69.50;;;;;;5017341;28;20502;-82
2022/11/09 01:25:16;;;;;;;6.43;5.90;;;18.10;70.70;;;;;;5025627;28;20461;-82
2022/11/09 01:27:44;;;;;;;6.30;5.70;;;18.20;69.10;;;;;;5028638;28;20461;-82
2022/11/09 01:30:15;;;;;;;6.57;6.07;;;18.30;70.10;;;;;;5029521;28;20464;-82
2022/11/09 01:32:44;;;;;;;6.70;6.00;;;18.40;70.00;;;;;;5025082;28;20544;-82
2022/11/09 01:35:12;;;;;;;6.30;5.67;;;18.50;69.30;;;;;;5033793;28;20454;-82
2022/11/09 01:37:40;;;;;;;6.70;6.10;;;18.50;69.50;;;;;;5032720;28;20475;-82
2022/11/09 01:40:12;;;;;;;7.07;6.37;;;18.60;68.60;;;;;;5011452;28;20452;-82
2022/11/09 01:42:40;;;;;;;6.23;5.03;;;18.60;68.40;;;;;;5032477;28;20614;-82
2022/11/09 01:45:22;;;;;;;6.10;5.50;;;18.60;68.10;;;;;;5015696;28;20456;-82
2022/11/09 01:47:54;;;;;;;7.17;6.17;;;18.60;67.90;;;;;;5030125;28;20483;-82
2022/11/09 01:50:38;;;;;;;5.90;5.30;;;18.50;68.20;;;;;;5033243;28;20460;-82
2022/11/09 01:53:09;;;;;;;5.43;4.93;;;18.50;68.40;;;;;;5022915;28;20551;-82
2022/11/09 01:55:39;;;;;;;6.07;5.47;;;18.40;68.20;;;;;;5007071;28;20461;-82
2022/11/09 01:58:10;;;;;;;6.73;6.10;;;18.50;69.00;;;;;;5006665;28;20473;-82
2022/11/09 02:00:43;;;;;;;6.33;5.57;;;18.50;68.60;;;;;;5002491;28;20937;-82
2022/11/09 02:03:14;;;;;;;5.90;5.40;;;18.60;68.30;;;;;;5018818;28;20451;-82
2022/11/09 02:05:43;;;;;;;6.83;6.00;;;18.70;68.30;;;;;;5015430;28;20543;-82
2022/11/09 02:08:15;;;;;;;6.63;6.03;;;18.70;69.60;;;;;;5016333;28;20453;-82
2022/11/09 02:10:48;;;;;;;5.37;4.87;;;18.80;68.30;;;;;;5012325;28;20480;-82
2022/11/09 02:13:19;;;;;;;6.43;5.70;;;18.80;68.80;;;;;;5012342;28;20460;-82
2022/11/09 02:15:50;;;;;;;5.83;5.20;;;18.90;68.70;;;;;;5023796;28;20517;-82
2022/11/09 02:18:19;;;;;;;6.10;5.50;;;18.90;66.80;;;;;;5024002;28;20477;-82
2022/11/09 02:20:50;;;;;;;5.63;5.23;;;18.80;67.10;;;;;;5031077;28;20459;-82
2022/11/09 02:23:23;;;;;;;5.90;5.40;;;18.70;66.90;;;;;;5012969;28;21049;-82
2022/11/09 02:25:54;;;;;;;6.20;5.70;;;18.60;67.20;;;;;;5027721;28;21090;-82
2022/11/09 02:28:23;;;;;;;5.37;4.90;;;18.60;69.50;;;;;;5029214;28;20440;-82
2022/11/09 02:30:55;;;;;;;6.07;5.50;;;18.60;69.60;;;;;;5022285;28;20445;-82
2022/11/09 02:33:24;;;;;;;5.47;5.07;;;18.70;68.50;;;;;;5009383;28;20457;-82
2022/11/09 02:35:54;;;;;;;6.23;5.63;;;18.70;67.50;;;;;;5006005;28;20471;-82
2022/11/09 02:38:23;;;;;;;5.70;5.20;;;18.70;67.40;;;;;;5030491;28;20524;-82
2022/11/09 02:40:52;;;;;;;5.90;5.50;;;18.70;67.50;;;;;;5002681;28;20457;-82
2022/11/09 02:43:21;;;;;;;6.10;5.50;;;18.70;67.50;;;;;;4998850;28;20456;-82
2022/11/09 02:45:49;;;;;;;5.63;5.13;;;18.70;69.00;;;;;;5008264;28;20980;-82
2022/11/09 02:48:18;;;;;;;6.53;5.73;;;18.70;67.80;;;;;;5026127;28;20492;-82
2022/11/09 02:50:46;;;;;;;8.60;5.80;;;18.80;69.00;;;;;;5024603;28;20444;-82
2022/11/09 02:53:15;;;;;;;5.30;4.80;;;18.80;68.70;;;;;;5029567;28;20467;-82
2022/11/09 02:55:45;;;;;;;5.90;5.40;;;18.90;67.10;;;;;;5006527;28;20546;-82
2022/11/09 02:58:14;;;;;;;6.40;5.80;;;18.90;66.90;;;;;;5030747;28;20472;-82
2022/11/09 03:00:42;;;;;;;7.20;5.33;;;18.90;66.70;;;;;;5005310;28;21038;-82
2022/11/09 03:03:11;;;;;;;6.33;5.73;;;18.80;67.20;;;;;;5025489;28;20461;-82
2022/11/09 03:05:39;;;;;;;6.57;5.90;;;18.80;68.20;;;;;;5022904;28;20467;-82
2022/11/09 03:08:08;;;;;;;6.03;5.40;;;18.80;67.00;;;;;;5029996;28;20456;-82
2022/11/09 03:10:37;;;;;;;6.67;6.07;;;18.90;67.30;;;;;;5029023;28;20444;-82
2022/11/09 03:13:05;;;;;;;5.17;4.70;;;18.90;66.30;;;;;;5030537;28;20456;-82
2022/11/09 03:15:34;;;;;;;6.60;5.97;;;18.80;68.80;;;;;;5031615;28;20448;-82
2022/11/09 03:18:02;;;;;;;7.07;6.10;;;18.90;69.10;;;;;;5020435;28;20978;-82
2022/11/09 03:20:30;;;;;;;6.57;5.47;;;19.00;68.50;;;;;;5025420;28;20503;-82
2022/11/09 03:22:59;;;;;;;5.43;4.90;;;19.10;68.70;;;;;;5005201;28;20449;-82
2022/11/09 03:25:29;;;;;;;7.77;5.20;;;19.30;68.60;;;;;;5025136;28;20943;-82
2022/11/09 03:28:02;;;;;;;5.67;5.17;;;19.30;65.60;;;;;;5006859;28;20489;-82
2022/11/09 03:30:30;;;;;;;6.10;5.50;;;19.30;65.60;;;;;;5005987;28;20485;-82
2022/11/09 03:32:59;;;;;;;5.60;5.20;;;19.20;65.80;;;;;;5005300;28;20540;-82
2022/11/09 03:35:28;;;;;;;5.90;5.33;;;19.00;65.80;;;;;;5005539;28;20464;-82
2022/11/09 03:37:57;;;;;;;6.57;6.03;;;18.90;68.10;;;;;;5026991;28;20534;-82
2022/11/09 03:40:25;;;;;;;6.33;5.30;;;18.90;66.40;;;;;;5005666;28;20480;-82
2022/11/09 03:42:53;;;;;;;5.87;5.30;;;18.90;67.60;;;;;;5018417;28;20445;-82
2022/11/09 03:45:26;;;;;;;5.57;5.03;;;19.00;68.40;;;;;;5012814;28;20471;-82
2022/11/09 03:47:58;;;;;;;6.00;5.30;;;19.00;67.00;;;;;;5029703;28;20479;-82
2022/11/09 03:50:28;;;;;;;5.87;5.37;;;19.10;67.50;;;;;;5023933;28;20453;-82
2022/11/09 03:52:56;;;;;;;6.70;6.00;;;19.10;68.40;;;;;;5030172;28;20907;-83
2022/11/09 03:55:24;;;;;;;5.60;5.10;;;19.20;65.10;;;;;;5031010;28;20798;-82
2022/11/09 03:57:52;;;;;;;6.03;5.33;;;19.10;66.70;;;;;;5018499;28;20472;-82
2022/11/09 04:00:23;;;;;;;5.20;4.70;;;19.10;65.30;;;;;;5031260;28;20452;-82
2022/11/09 04:02:52;;;;;;;6.23;5.40;;;19.00;67.70;;;;;;5021955;28;20452;-82
2022/11/09 04:05:20;;;;;;;5.10;4.70;;;19.00;66.20;;;;;;5022719;28;20460;-82
2022/11/09 04:07:49;;;;;;;4.80;4.40;;;19.00;66.80;;;;;;5024474;28;20540;-82
2022/11/09 04:10:18;;;;;;;6.07;5.57;;;19.00;66.10;;;;;;5028064;28;20472;-82
2022/11/09 04:12:47;;;;;;;6.10;5.50;;;19.00;65.40;;;;;;5025847;28;20443;-82
2022/11/09 04:15:15;;;;;;;6.00;5.30;;;18.90;65.50;;;;;;5022229;28;20454;-82
2022/11/09 04:17:53;;;;;;;8.37;7.30;;;18.80;66.50;;;;;;5030746;28;20468;-82
2022/11/09 04:20:21;;;;;;;7.47;6.77;;;18.70;66.10;;;;;;5026895;28;20449;-82
2022/11/09 04:22:54;;;;;;;6.40;5.90;;;18.60;66.40;;;;;;5034540;28;20477;-82
2022/11/09 04:25:22;;;;;;;6.67;6.03;;;18.50;66.20;;;;;;5032591;28;20456;-82
2022/11/09 04:27:54;;;;;;;6.27;5.67;;;18.40;67.50;;;;;;5022904;28;20448;-82
2022/11/09 04:30:23;;;;;;;6.27;5.67;;;18.30;67.60;;;;;;5030561;28;20440;-82
2022/11/09 04:32:52;;;;;;;6.23;5.63;;;18.30;67.60;;;;;;5022341;28;20445;-82
2022/11/09 04:35:21;;;;;;;5.77;5.27;;;18.30;66.70;;;;;;5022366;28;20951;-82
2022/11/09 04:37:54;;;;;;;5.23;4.70;;;18.30;68.80;;;;;;5029941;28;20522;-82
2022/11/09 04:40:23;;;;;;;6.03;5.43;;;18.30;69.60;;;;;;5029604;28;20456;-82
2022/11/09 04:42:51;;;;;;;5.87;5.37;;;18.40;67.90;;;;;;5033333;28;20823;-82
2022/11/09 04:45:20;;;;;;;6.20;4.37;;;18.60;69.00;;;;;;5026073;28;20424;-82
2022/11/09 04:47:48;;;;;;;6.93;6.40;;;18.70;69.20;;;;;;5032853;28;20986;-82
2022/11/09 04:50:19;;;;;;;4.70;4.30;;;18.80;67.50;;;;;;5025692;28;20452;-82
2022/11/09 04:52:51;;;;;;;6.47;5.87;;;18.90;67.90;;;;;;5022032;28;20444;-82
2022/11/09 04:55:19;;;;;;;10.50;9.50;;;19.00;66.60;;;;;;5027207;28;20441;-82
2022/11/09 04:57:47;;;;;;;7.93;7.27;;;18.90;65.40;;;;;;5028475;28;20476;-82
2022/11/09 05:00:16;;;;;;;10.80;9.87;;;18.80;66.00;;;;;;5026064;28;20471;-82
2022/11/09 05:02:44;;;;;;;6.40;5.90;;;18.60;67.10;;;;;;5031206;28;20441;-82
2022/11/09 05:05:12;;;;;;;7.10;6.50;;;18.40;67.70;;;;;;5026456;28;20475;-82
2022/11/09 05:07:42;;;;;;;5.50;4.40;;;18.40;67.10;;;;;;5030494;28;20454;-82
2022/11/09 05:10:10;;;;;;;5.97;5.13;;;18.40;67.60;;;;;;5024931;28;20466;-82
2022/11/09 05:12:38;;;;;;;6.93;6.23;;;18.30;66.80;;;;;;5022437;28;20818;-82
2022/11/09 05:15:12;;;;;;;5.27;4.83;;;18.20;67.60;;;;;;5019755;28;20535;-82
2022/11/09 05:17:40;;;;;;;4.77;4.37;;;18.20;68.30;;;;;;5025215;28;20455;-82
2022/11/09 05:20:10;;;;;;;4.83;4.43;;;18.30;69.30;;;;;;5019603;28;20456;-82
2022/11/09 05:25:39;;;;;;;5.50;5.00;;;18.60;68.80;;;;;;4969061;28;20823;-82
2022/11/09 05:28:07;;;;;;;6.53;5.93;;;18.70;68.30;;;;;;5013205;28;20459;-82
2022/11/09 05:30:36;;;;;;;6.10;5.47;;;18.80;67.60;;;;;;5032716;28;20543;-82
2022/11/09 05:33:06;;;;;;;5.83;5.17;;;18.70;66.00;;;;;;5031659;28;20448;-82
2022/11/09 05:35:34;;;;;;;5.20;4.80;;;18.70;67.30;;;;;;5018827;28;20460;-82
2022/11/09 05:38:04;;;;;;;5.30;4.80;;;18.70;67.70;;;;;;5028136;28;20448;-82
2022/11/09 05:40:32;;;;;;;5.07;4.13;;;18.70;68.30;;;;;;5029014;28;20460;-82
2022/11/09 05:43:01;;;;;;;5.23;4.83;;;18.70;68.60;;;;;;5027785;28;20464;-82
2022/11/09 05:45:31;;;;;;;7.57;6.27;;;18.80;68.30;;;;;;5025795;28;20460;-82
2022/11/09 05:48:16;;;;;;;12.30;5.30;;;18.80;67.20;;;;;;5028571;28;20494;-82
2022/11/09 05:50:44;;;;;;;4.10;3.80;;;18.90;67.10;;;;;;5029948;28;20485;-82
2022/11/09 05:53:23;;;;;;;6.20;5.60;;;18.90;68.50;;;;;;5009658;28;20876;-82
2022/11/09 05:55:51;;;;;;;5.10;4.60;;;19.00;68.80;;;;;;5024871;28;20862;-82
2022/11/09 05:58:19;;;;;;;5.40;4.73;;;19.20;70.10;;;;;;5031399;28;20813;-82
2022/11/09 06:00:47;;;;;;;4.40;4.10;;;19.40;69.70;;;;;;5008864;28;20460;-82
2022/11/09 06:03:16;;;;;;;4.40;4.00;;;19.60;69.10;;;;;;5027689;28;20464;-81
2022/11/09 06:05:44;;;;;;;5.27;4.50;;;19.80;68.90;;;;;;5032662;28;20456;-80
2022/11/09 06:08:13;;;;;;;6.13;4.27;;;20.00;68.50;;;;;;5028479;28;20459;-81
2022/11/09 06:10:46;;;;;;;6.43;4.37;;;20.20;67.80;;;;;;5031113;28;20459;-81
2022/11/09 06:13:14;;;;;;;4.90;3.70;;;20.30;67.40;;;;;;5027797;28;20461;-81
2022/11/09 06:15:42;;;;;;;4.30;3.90;;;20.50;67.00;;;;;;5028335;28;20459;-81
2022/11/09 06:18:10;;;;;;;4.30;3.90;;;20.60;66.90;;;;;;5032313;28;20558;-83
2022/11/09 06:20:38;;;;;;;4.67;4.27;;;20.70;66.70;;;;;;5027117;28;20564;-83
2022/11/09 06:23:06;;;;;;;4.10;3.80;;;20.80;66.50;;;;;;5022123;28;20560;-82
2022/11/09 06:25:35;;;;;;;4.77;3.90;;;20.80;66.50;;;;;;5027324;28;20450;-82
2022/11/09 06:28:04;;;;;;;4.70;4.30;;;20.90;66.30;;;;;;5022760;28;20464;-81
2022/11/09 06:30:32;;;;;;;5.17;4.20;;;20.90;66.20;;;;;;5022950;28;20466;-82
2022/11/09 06:33:01;;;;;;;4.17;3.87;;;21.00;66.00;;;;;;5022858;28;20472;-82
2022/11/09 06:35:30;;;;;;;4.53;4.13;;;21.00;65.90;;;;;;5022283;28;20455;-81
2022/11/09 06:37:59;;;;;;;6.17;4.20;;;21.00;65.80;;;;;;5026172;28;20937;-82
2022/11/09 06:40:50;;;;;;;7.40;4.47;;;21.10;65.70;;;;;;5028274;28;20475;-82
2022/11/09 06:43:20;;;;;;;4.90;4.40;;;21.10;65.70;;;;;;5029339;28;20481;-82
2022/11/09 06:45:48;;;;;;;4.17;3.87;;;21.10;65.50;;;;;;5029703;28;20523;-81
2022/11/09 06:48:17;;;;;;;5.57;4.50;;;21.10;65.70;;;;;;5028714;28;20517;-82
2022/11/09 06:50:45;;;;;;;4.30;3.97;;;21.20;65.70;;;;;;5022129;28;20455;-81
2022/11/09 06:53:15;;;;;;;6.87;4.80;;;21.20;65.70;;;;;;5025136;28;20589;-82
2022/11/09 06:55:43;;;;;;;4.83;4.30;;;21.20;65.70;;;;;;5025892;28;20447;-82
2022/11/09 06:58:18;;;;;;;5.00;4.60;;;21.20;65.70;;;;;;5026499;28;20450;-82
2022/11/09 07:00:48;;;;;;;8.50;4.43;;;21.20;65.50;;;;;;5026654;28;20471;-82
2022/11/09 07:03:18;;;;;;;5.60;5.07;;;21.20;65.40;;;;;;5029683;28;20469;-82
2022/11/09 07:05:47;;;;;;;4.63;4.17;;;21.20;65.40;;;;;;5030749;28;20810;-82
2022/11/09 07:08:17;;;;;;;5.03;4.50;;;21.20;65.30;;;;;;5029238;28;21074;-82
2022/11/09 07:10:45;;;;;;;5.60;4.00;;;21.20;65.30;;;;;;5023680;28;20459;-82
2022/11/09 07:13:14;;;;;;;6.00;3.70;;;21.30;65.30;;;;;;5028639;28;20474;-82
2022/11/09 07:15:42;;;;;;;6.43;4.33;;;21.30;65.20;;;;;;5029202;28;20442;-82
2022/11/09 07:18:12;;;;;;;4.80;4.40;;;21.30;65.10;;;;;;5025194;28;20470;-82
2022/11/09 07:20:40;;;;;;;6.80;4.27;;;21.30;65.10;;;;;;5027253;28;20483;-82
2022/11/09 07:23:08;;;;;;;5.37;4.53;;;21.30;65.10;;;;;;5027366;28;20443;-82
2022/11/09 07:25:36;;;;;;;6.03;4.50;;;21.30;65.10;;;;;;5022090;28;20467;-83
2022/11/09 07:28:06;;;;;;;5.27;4.43;;;21.30;65.10;;;;;;5025197;28;20451;-84
2022/11/09 07:30:35;;;;;;;6.70;4.20;;;21.30;65.20;;;;;;5032001;28;20459;-83
2022/11/09 07:33:04;;;;;;;4.60;3.40;;;21.30;65.40;;;;;;5027451;28;20439;-84
2022/11/09 07:35:38;;;;;;;5.07;4.57;;;21.30;65.70;;;;;;5027962;28;20772;-83
2022/11/09 07:38:07;;;;;;;4.83;4.17;;;21.30;65.80;;;;;;5020440;28;20858;-84
2022/11/09 07:40:35;;;;;;;4.70;3.80;;;21.40;65.80;;;;;;5024773;28;20482;-84
2022/11/09 07:43:06;;;;;;;6.30;4.83;;;21.40;65.80;;;;;;5029290;28;20482;-84
2022/11/09 07:45:37;;;;;;;5.13;4.00;;;21.40;65.70;;;;;;5003303;28;21108;-84
2022/11/09 07:48:08;;;;;;;5.33;4.33;;;21.40;65.70;;;;;;5036721;28;21116;-84
2022/11/09 07:50:39;;;;;;;4.80;3.90;;;21.50;65.70;;;;;;5014161;28;20546;-83
2022/11/09 07:53:10;;;;;;;5.20;3.80;;;21.50;65.60;;;;;;5028104;28;21083;-83
2022/11/09 07:55:38;;;;;;;9.13;4.60;;;21.50;65.50;;;;;;5024235;28;20967;-84
2022/11/09 07:58:08;;;;;;;4.93;3.77;;;21.50;65.50;;;;;;5028514;28;20477;-84
2022/11/09 08:00:39;;;;;;;5.00;3.60;;;21.60;65.40;;;;;;5025516;28;20470;-86
2022/11/09 08:03:08;;;;;;;4.83;4.43;;;21.60;65.40;;;;;;5021766;28;20460;-84
2022/11/09 08:05:37;;;;;;;5.40;4.47;;;21.60;65.40;;;;;;5036030;28;20461;-85
2022/11/09 08:08:09;;;;;;;5.97;4.93;;;21.60;65.40;;;;;;5026553;28;20465;-84
2022/11/09 08:10:38;;;;;;;6.43;3.73;;;21.60;65.30;;;;;;5022632;28;20466;-85
2022/11/09 08:13:08;;;;;;;4.67;4.20;;;21.70;65.20;;;;;;5028323;28;20459;-84
2022/11/09 08:15:37;;;;;;;4.87;4.47;;;21.70;65.10;;;;;;5029781;28;20459;-84
2022/11/09 08:18:09;;;;;;;6.03;4.30;;;21.70;65.10;;;;;;5027665;28;20866;-84
2022/11/09 08:20:39;;;;;;;6.20;3.90;;;21.70;65.10;;;;;;5033295;28;20553;-85
2022/11/09 08:23:07;;;;;;;4.50;4.10;;;21.70;65.00;;;;;;5036080;28;20458;-84
2022/11/09 08:25:36;;;;;;;4.60;4.20;;;21.70;65.00;;;;;;5029713;28;20455;-86
2022/11/09 08:28:04;;;;;;;4.47;3.83;;;21.70;65.00;;;;;;5027850;28;20459;-84
2022/11/09 08:30:35;;;;;;;4.97;4.57;;;21.80;65.00;;;;;;5013015;28;20455;-85
2022/11/09 08:33:04;;;;;;;5.87;4.70;;;21.80;65.00;;;;;;5031098;28;20452;-85
2022/11/09 08:35:33;;;;;;;4.40;4.00;;;21.80;64.90;;;;;;5021771;28;20458;-85
2022/11/09 08:38:04;;;;;;;4.17;3.77;;;21.80;64.90;;;;;;5029404;28;20522;-85
2022/11/09 08:40:33;;;;;;;4.67;4.27;;;21.80;64.90;;;;;;5029991;28;20773;-83
2022/11/09 08:43:03;;;;;;;7.17;3.90;;;21.90;64.80;;;;;;5029354;28;20516;-84
2022/11/09 08:45:33;;;;;;;5.00;4.57;;;21.90;64.80;;;;;;5024256;28;20463;-85
2022/11/09 08:48:02;;;;;;;4.20;3.80;;;21.90;64.80;;;;;;5030826;28;20480;-84
2022/11/09 08:50:32;;;;;;;3.90;3.67;;;21.90;64.80;;;;;;5030428;28;20527;-85
2022/11/09 08:53:03;;;;;;;4.57;4.10;;;21.90;64.80;;;;;;5021207;28;20460;-84
2022/11/09 08:55:31;;;;;;;4.57;4.17;;;21.90;64.70;;;;;;5031726;28;20457;-84
2022/11/09 08:58:09;;;;;;;4.80;4.13;;;21.90;64.70;;;;;;5023525;28;20460;-84
2022/11/09 09:00:39;;;;;;;5.17;4.77;;;21.90;64.70;;;;;;5029560;28;20534;-84
2022/11/09 09:03:10;;;;;;;4.83;4.17;;;22.00;64.60;;;;;;5023626;28;20528;-83
2022/11/09 09:05:39;;;;;;;4.70;4.17;;;22.00;64.50;;;;;;5025863;28;20505;-82
2022/11/09 09:08:10;;;;;;;4.17;3.70;;;22.00;64.40;;;;;;5033272;28;20467;-81
2022/11/09 09:10:39;;;;;;;7.10;4.47;;;22.00;64.60;;;;;;5032661;28;20459;-83
2022/11/09 09:13:07;;;;;;;4.50;4.10;;;22.00;64.70;;;;;;5031843;28;20467;-82
2022/11/09 09:15:35;;;;;;;4.20;3.90;;;22.00;64.80;;;;;;5032152;28;20478;-83
2022/11/09 09:18:04;;;;;;;4.57;4.13;;;22.00;64.90;;;;;;5023433;28;20455;-82
2022/11/09 09:20:32;;;;;;;4.67;3.90;;;22.00;64.90;;;;;;5031902;28;20482;-81
2022/11/09 09:23:01;;;;;;;6.00;3.90;;;22.00;64.90;;;;;;5027563;28;20475;-82
2022/11/09 09:25:30;;;;;;;3.73;3.43;;;22.00;64.90;;;;;;5030308;28;20814;-82
2022/11/09 09:27:58;;;;;;;6.13;4.10;;;22.00;64.90;;;;;;5027127;28;20836;-81
2022/11/09 09:30:27;;;;;;;4.27;3.97;;;22.10;64.90;;;;;;5021843;28;20455;-82
2022/11/09 09:32:59;;;;;;;3.93;3.53;;;22.10;64.90;;;;;;5026490;28;20455;-81
2022/11/09 09:35:27;;;;;;;4.30;3.90;;;22.10;64.90;;;;;;5027272;28;20458;-81
2022/11/09 09:37:56;;;;;;;3.87;3.50;;;22.10;65.00;;;;;;5029497;28;20942;-82
2022/11/09 09:40:29;;;;;;;4.70;3.73;;;22.10;64.90;;;;;;5030148;28;20583;-82
2022/11/09 09:42:59;;;;;;;4.03;3.77;;;22.10;64.90;;;;;;5026374;28;20451;-83
2022/11/09 09:45:30;;;;;;;3.87;3.57;;;22.10;64.90;;;;;;5031965;28;20849;-83
2022/11/09 09:48:02;;;;;;;3.80;3.50;;;22.10;64.90;;;;;;5029125;28;20484;-82
2022/11/09 09:50:37;;;;;;;3.63;3.33;;;22.10;64.90;;;;;;5027384;28;20467;-82
2022/11/09 09:53:18;;;;;;;3.73;3.43;;;22.20;64.90;;;;;;5028733;28;21368;-84
2022/11/09 09:55:56;;;;;;;3.80;3.20;;;22.20;64.90;;;;;;5030523;28;20871;-83
2022/11/09 09:58:28;;;;;;;3.77;3.47;;;22.20;64.90;;;;;;5028972;28;20448;-83
2022/11/09 10:01:02;;;;;;;3.97;3.57;;;22.20;64.90;;;;;;5027599;28;20464;-82
2022/11/09 10:03:31;;;;;;;4.60;3.67;;;22.20;64.90;;;;;;5026944;28;20496;-82
2022/11/09 10:06:11;;;;;;;3.70;3.40;;;22.20;64.90;;;;;;5028568;28;20516;-82
2022/11/09 10:08:51;;;;;;;2.93;2.73;;;22.20;64.90;;;;;;5022486;28;20575;-83
2022/11/09 10:11:29;;;;;;;3.77;3.47;;;22.20;64.90;;;;;;5024642;28;20466;-82
2022/11/09 10:14:33;;;;;;;3.40;3.10;;;22.20;64.90;;;;;;5023104;28;20898;-81
2022/11/09 10:17:09;;;;;;;3.40;3.10;;;22.30;64.90;;;;;;5002846;28;20463;-82
2022/11/09 10:19:53;;;;;;;4.80;3.10;;;22.30;64.90;;;;;;5023043;28;20448;-82
2022/11/09 10:22:26;;;;;;;4.03;3.67;;;22.30;64.80;;;;;;5026364;28;20480;-81
2022/11/09 10:24:58;;;;;;;3.83;3.37;;;22.30;64.70;;;;;;5023545;28;20803;-81
2022/11/09 10:27:51;;;;;;;3.30;3.10;;;22.30;64.80;;;;;;5026067;28;20467;-82
2022/11/09 10:30:23;;;;;;;3.90;3.60;;;22.40;64.80;;;;;;5025179;28;20567;-81
2022/11/09 10:32:54;;;;;;;3.10;2.47;;;22.40;64.80;;;;;;5027110;28;20503;-81
2022/11/09 10:35:28;;;;;;;4.67;4.27;;;22.40;64.80;;;;;;5028944;28;20453;-80
2022/11/09 10:37:56;;;;;;;3.30;3.00;;;22.40;64.80;;;;;;5025711;28;20452;-79
2022/11/09 10:40:28;;;;;;;2.80;2.60;;;22.40;64.80;;;;;;5025766;28;20452;-82
2022/11/09 10:43:15;;;;;;;3.90;3.50;;;22.40;64.70;;;;;;5028700;28;20531;-82
2022/11/09 10:46:05;;;;;;;2.93;2.73;;;22.50;64.50;;;;;;5025140;28;20829;-81
2022/11/09 10:48:54;;;;;;;2.77;2.57;;;22.50;64.40;;;;;;5025620;28;20591;-82
2022/11/09 10:51:45;;;;;;;3.13;2.80;;;22.60;64.40;;;;;;5025566;28;20439;-81
2022/11/09 10:54:34;;;;;;;5.10;3.50;;;22.60;64.40;;;;;;5029520;28;20455;-82
2022/11/09 10:57:22;;;;;;;2.83;2.60;;;22.70;64.40;;;;;;5026257;28;20449;-85
2022/11/09 11:00:16;;;;;;;5.93;2.80;;;22.90;63.90;;;;;;5020752;28;20513;-84
2022/11/09 11:03:15;;;;;;;3.30;3.00;;;23.00;63.70;;;;;;5022795;28;20535;-83
2022/11/09 11:06:04;;;;;;;4.20;3.00;;;23.10;63.40;;;;;;5020365;28;20469;-82
2022/11/09 11:08:53;;;;;;;3.67;2.97;;;23.10;63.20;;;;;;5021731;28;20527;-83
2022/11/09 11:11:40;;;;;;;3.40;3.03;;;23.20;63.10;;;;;;5028204;28;20506;-84
2022/11/09 11:14:31;;;;;;;4.25;3.05;;;23.20;63.00;;;;;;5024786;28;20499;-86
2022/11/09 11:17:22;;;;;;;3.10;2.73;;;23.20;63.10;;;;;;5027633;28;20204;-81
2022/11/09 11:20:29;;;;;;;2.80;2.60;;;23.20;63.00;;;;;;5024581;28;20441;-83
2022/11/09 11:23:18;;;;;;;2.63;2.43;;;23.10;63.00;;;;;;5024586;28;20826;-81
2022/11/09 11:26:28;;;;;;;3.70;3.13;;;23.10;63.00;;;;;;5026714;28;20439;-82
2022/11/09 11:29:32;;;;;;;3.13;2.93;;;23.00;63.00;;;;;;5025284;28;20528;-82
2022/11/09 11:32:20;;;;;;;3.30;2.70;;;22.90;63.00;;;;;;5026900;28;20545;-82
2022/11/09 11:35:14;;;;;;;4.10;3.33;;;22.90;63.20;;;;;;5021029;28;20448;-81
2022/11/09 11:38:13;;;;;;;2.87;2.67;;;22.80;63.30;;;;;;5023507;28;20455;-81
2022/11/09 11:41:15;;;;;;;3.13;2.83;;;22.80;63.30;;;;;;5023646;28;20547;-81
2022/11/09 11:44:09;;;;;;;2.67;2.47;;;22.70;63.40;;;;;;5030227;28;20447;-81
2022/11/09 11:47:02;;;;;;;3.13;2.53;;;22.70;63.50;;;;;;5027240;28;20505;-81
2022/11/09 11:50:06;;;;;;;3.80;2.87;;;22.70;63.50;;;;;;5028544;28;20500;-81
2022/11/09 11:53:06;;;;;;;2.67;2.47;;;22.70;63.50;;;;;;5026340;28;20964;-81
2022/11/09 11:56:06;;;;;;;3.00;2.70;;;22.60;63.60;;;;;;5026632;28;20591;-81
2022/11/09 11:59:22;;;;;;;3.43;2.60;;;22.60;63.60;;;;;;5030288;28;20777;-81
2022/11/09 12:02:53;;;;;;;5.27;2.80;;;22.60;63.70;;;;;;5022956;28;20563;-81
2022/11/09 12:06:05;;;;;;;2.60;2.40;;;22.60;63.80;;;;;;4977922;28;20941;-81
2022/11/09 12:09:06;;;;;;;2.83;2.63;;;22.50;63.70;;;;;;5022540;28;20468;-82
2022/11/09 12:12:10;;;;;;;2.40;2.20;;;22.50;63.80;;;;;;5026351;28;20451;-81
2022/11/09 12:15:11;;;;;;;2.83;2.53;;;22.50;63.80;;;;;;5021217;28;20448;-80
2022/11/09 12:18:06;;;;;;;2.67;2.47;;;22.50;63.80;;;;;;5019031;28;20451;-81
2022/11/09 12:21:03;;;;;;;6.33;2.10;;;22.50;63.90;;;;;;5027978;28;20451;-82
2022/11/09 12:24:06;;;;;;;3.80;2.57;;;22.50;64.30;;;;;;5027928;28;20452;-82
2022/11/09 12:27:07;;;;;;;3.67;2.33;;;22.50;64.30;;;;;;5027608;28;20466;-81
2022/11/09 12:30:17;;;;;;;3.63;2.80;;;22.50;64.40;;;;;;5027442;28;20533;-81
2022/11/09 12:33:08;;;;;;;6.63;2.43;;;22.50;64.50;;;;;;5027710;28;20460;-81
2022/11/09 12:36:01;;;;;;;3.20;2.30;;;22.60;64.60;;;;;;5027319;28;21054;-82
2022/11/09 12:38:57;;;;;;;3.10;2.80;;;22.60;64.60;;;;;;5025871;28;20542;-81
2022/11/09 12:41:47;;;;;;;4.50;2.43;;;22.60;64.70;;;;;;5027401;28;20465;-81
2022/11/09 12:44:39;;;;;;;2.40;2.20;;;22.60;64.70;;;;;;5031725;28;20795;-82
2022/11/09 12:47:31;;;;;;;2.33;2.10;;;22.70;64.70;;;;;;5030306;28;20498;-80
2022/11/09 12:50:20;;;;;;;3.40;2.63;;;22.70;64.70;;;;;;5026926;28;20437;-81
2022/11/09 12:53:07;;;;;;;2.33;2.13;;;22.80;64.70;;;;;;5029814;28;20465;-81
2022/11/09 12:55:59;;;;;;;4.60;2.40;;;22.80;64.60;;;;;;5026544;28;20453;-83
2022/11/09 12:58:47;;;;;;;2.90;2.60;;;22.90;64.50;;;;;;5027218;28;20600;-82
2022/11/09 13:01:53;;;;;;;2.37;2.20;;;22.90;64.40;;;;;;5028469;28;20953;-82
2022/11/09 13:04:55;;;;;;;2.73;2.40;;;22.90;64.50;;;;;;5026496;28;20559;-83
2022/11/09 13:07:49;;;;;;;2.80;2.60;;;23.00;64.50;;;;;;5029003;28;20593;-82
2022/11/09 13:10:38;;;;;;;2.60;2.40;;;23.00;64.50;;;;;;5025584;28;20465;-82
2022/11/09 13:13:25;;;;;;;2.50;2.30;;;23.10;64.10;;;;;;5021909;28;20567;-84
2022/11/09 13:16:33;;;;;;;2.53;2.17;;;23.20;64.10;;;;;;5025499;28;20267;-83
2022/11/09 13:19:53;;;;;;;2.90;2.50;;;23.20;63.70;;;;;;5029319;28;20544;-83
2022/11/09 13:22:58;;;;;;;2.73;1.93;;;23.20;63.70;;;;;;5024919;28;20497;-82
2022/11/09 13:25:50;;;;;;;2.03;1.90;;;23.10;63.70;;;;;;5027434;28;20971;-82
2022/11/09 13:28:50;;;;;;;2.10;1.90;;;23.10;63.80;;;;;;5025312;28;20460;-80